createdAt,value
2023-04-16T00:01:27.572Z,7.35
2023-04-16T00:03:55.096Z,7.43
2023-04-16T00:06:23.173Z,7.15
2023-04-16T00:08:50.423Z,6.90
2023-04-16T00:11:17.401Z,7.65
2023-04-16T00:13:43.994Z,6.75
2023-04-16T00:16:10.705Z,7.95
2023-04-16T00:18:37.265Z,7.50
2023-04-16T00:21:04.002Z,7.70
2023-04-16T00:23:30.628Z,8.07
2023-04-16T00:25:59.971Z,7.47
2023-04-16T00:28:27.720Z,7.85
2023-04-16T00:30:55.047Z,8.15
2023-04-16T00:33:21.783Z,7.95
2023-04-16T00:35:48.837Z,7.95
2023-04-16T00:38:15.863Z,7.32
2023-04-16T00:40:42.649Z,8.55
2023-04-16T00:43:09.208Z,8.13
2023-04-16T00:45:36.685Z,8.73
2023-04-16T00:48:04.212Z,7.82
2023-04-16T00:50:30.976Z,8.50
2023-04-16T00:52:58.100Z,8.20
2023-04-16T00:55:24.894Z,8.20
2023-04-16T00:57:51.472Z,8.68
2023-04-16T01:00:18.006Z,8.02
2023-04-16T01:02:44.719Z,7.88
2023-04-16T01:05:11.426Z,8.15
2023-04-16T01:07:38.187Z,8.05
2023-04-16T01:10:05.000Z,8.38
2023-04-16T01:12:32.570Z,7.60
2023-04-16T01:14:59.216Z,8.25
2023-04-16T01:17:26.041Z,9.20
2023-04-16T01:19:52.657Z,8.25
2023-04-16T01:22:19.265Z,8.20
2023-04-16T01:24:46.235Z,9.05
2023-04-16T01:27:12.825Z,8.18
2023-04-16T01:29:39.406Z,9.30
2023-04-16T01:32:06.121Z,8.75
2023-04-16T01:34:32.719Z,9.68
2023-04-16T01:36:59.389Z,8.30
2023-04-16T01:39:26.410Z,8.57
2023-04-16T01:41:52.963Z,8.88
2023-04-16T01:44:19.506Z,8.50
2023-04-16T01:46:46.338Z,8.32
2023-04-16T01:49:12.991Z,8.27
2023-04-16T01:51:39.547Z,9.45
2023-04-16T01:54:06.189Z,9.00
2023-04-16T01:56:32.851Z,8.80
2023-04-16T01:58:59.380Z,8.50
2023-04-16T02:01:26.186Z,8.60
2023-04-16T02:03:53.589Z,8.82
2023-04-16T02:06:20.213Z,8.27
2023-04-16T02:08:46.762Z,8.68
2023-04-16T02:11:13.394Z,7.88
2023-04-16T02:13:39.940Z,9.43
2023-04-16T02:16:06.734Z,7.93
2023-04-16T02:18:33.336Z,9.25
2023-04-16T02:21:00.539Z,8.85
2023-04-16T02:23:27.075Z,10.18
2023-04-16T02:25:53.747Z,8.88
2023-04-16T02:28:20.341Z,9.18
2023-04-16T02:30:46.962Z,8.95
2023-04-16T02:33:13.613Z,9.15
2023-04-16T02:35:40.500Z,9.70
2023-04-16T02:38:07.860Z,9.13
2023-04-16T02:40:34.845Z,9.35
2023-04-16T02:43:01.423Z,8.98
2023-04-16T02:45:27.970Z,9.07
2023-04-16T02:47:54.669Z,8.77
2023-04-16T02:50:21.356Z,8.13
2023-04-16T02:52:48.623Z,8.55
2023-04-16T02:55:15.181Z,8.63
2023-04-16T02:57:42.620Z,8.57
2023-04-16T03:00:09.903Z,9.00
2023-04-16T03:02:36.615Z,7.55
2023-04-16T03:05:03.778Z,7.95
2023-04-16T03:07:30.452Z,8.45
2023-04-16T03:09:57.275Z,8.82
2023-04-16T03:12:23.876Z,7.60
2023-04-16T03:14:52.564Z,7.43
2023-04-16T03:17:19.299Z,8.98
2023-04-16T03:19:46.200Z,7.43
2023-04-16T03:22:13.285Z,7.05
2023-04-16T03:24:39.897Z,6.22
2023-04-16T03:27:06.459Z,7.47
2023-04-16T03:29:33.003Z,6.93
2023-04-16T03:31:59.607Z,8.20
2023-04-16T03:34:26.169Z,6.93
2023-04-16T03:36:52.757Z,8.38
2023-04-16T03:39:19.327Z,8.32
2023-04-16T03:41:46.240Z,8.45
2023-04-16T03:44:12.787Z,7.95
2023-04-16T03:46:39.439Z,7.35
2023-04-16T03:49:06.270Z,7.15
2023-04-16T03:51:33.036Z,7.22
2023-04-16T03:53:59.633Z,7.32
2023-04-16T03:56:26.288Z,7.45
2023-04-16T03:58:52.927Z,7.18
2023-04-16T04:01:19.518Z,7.32
2023-04-16T04:03:46.242Z,6.47
2023-04-16T04:06:13.068Z,6.65
2023-04-16T04:08:39.607Z,7.82
2023-04-16T04:11:06.137Z,7.22
2023-04-16T04:13:32.692Z,5.82
2023-04-16T04:15:59.286Z,5.97
2023-04-16T04:18:26.023Z,6.30
2023-04-16T04:20:52.734Z,6.78
2023-04-16T04:23:19.332Z,7.30
2023-04-16T04:25:46.076Z,7.13
2023-04-16T04:28:12.662Z,7.60
2023-04-16T04:30:39.238Z,7.22
2023-04-16T04:33:06.389Z,8.18
2023-04-16T04:35:33.498Z,8.43
2023-04-16T04:38:00.176Z,9.98
2023-04-16T04:40:26.722Z,8.43
2023-04-16T04:42:53.230Z,7.63
2023-04-16T04:45:19.763Z,8.27
2023-04-16T04:47:46.375Z,9.40
2023-04-16T04:50:12.965Z,8.88
2023-04-16T04:52:39.524Z,8.65
2023-04-16T04:55:06.464Z,7.80
2023-04-16T04:57:33.037Z,8.45
2023-04-16T04:59:59.629Z,8.20
2023-04-16T05:02:26.182Z,7.18
2023-04-16T05:04:52.797Z,7.60
2023-04-16T05:07:19.340Z,6.97
2023-04-16T05:09:45.875Z,7.53
2023-04-16T05:12:12.404Z,6.70
2023-04-16T05:14:38.993Z,9.57
2023-04-16T05:17:05.541Z,9.05
2023-04-16T05:19:32.107Z,8.15
2023-04-16T05:21:58.683Z,9.02
2023-04-16T05:24:25.451Z,8.10
2023-04-16T05:26:52.074Z,7.72
2023-04-16T05:29:18.664Z,7.25
2023-04-16T05:31:45.646Z,7.32
2023-04-16T05:34:12.169Z,7.50
2023-04-16T05:36:38.680Z,7.38
2023-04-16T05:39:06.259Z,7.80
2023-04-16T05:41:32.807Z,8.15
2023-04-16T05:43:59.407Z,6.97
2023-04-16T05:46:26.057Z,8.20
2023-04-16T05:48:52.695Z,8.63
2023-04-16T05:51:19.501Z,7.55
2023-04-16T05:53:46.073Z,6.88
2023-04-16T05:56:12.611Z,8.15
2023-04-16T05:58:39.149Z,7.60
2023-04-16T06:01:05.722Z,6.82
2023-04-16T06:03:32.301Z,6.57
2023-04-16T06:05:59.107Z,7.80
2023-04-16T06:08:25.701Z,7.63
2023-04-16T06:10:52.327Z,7.30
2023-04-16T06:13:18.893Z,7.03
2023-04-16T06:15:45.528Z,7.53
2023-04-16T06:18:12.183Z,7.25
2023-04-16T06:20:38.790Z,7.18
2023-04-16T06:23:05.542Z,8.18
2023-04-16T06:25:32.135Z,7.20
2023-04-16T06:27:58.743Z,7.90
2023-04-16T06:30:25.614Z,7.38
2023-04-16T06:32:53.010Z,6.97
2023-04-16T06:35:20.376Z,6.90
2023-04-16T06:37:47.161Z,6.85
2023-04-16T06:40:13.859Z,6.30
2023-04-16T06:42:41.196Z,6.45
2023-04-16T06:45:09.251Z,7.35
2023-04-16T06:47:35.847Z,6.80
2023-04-16T06:50:02.482Z,6.90
2023-04-16T06:52:29.602Z,7.75
2023-04-16T06:54:56.510Z,6.47
2023-04-16T06:57:23.032Z,7.10
2023-04-16T06:59:49.592Z,7.95
2023-04-16T07:02:16.606Z,7.53
2023-04-16T07:04:43.245Z,7.47
2023-04-16T07:07:12.580Z,6.95
2023-04-16T07:09:39.111Z,7.10
2023-04-16T07:12:07.051Z,7.85
2023-04-16T07:14:33.691Z,7.35
2023-04-16T07:17:00.444Z,7.07
2023-04-16T07:19:30.604Z,6.78
2023-04-16T07:24:23.724Z,7.00
2023-04-16T07:26:50.305Z,6.78
2023-04-16T07:29:16.848Z,7.93
2023-04-16T07:31:43.442Z,6.88
2023-04-16T07:34:10.088Z,7.57
2023-04-16T07:36:36.735Z,7.10
2023-04-16T07:39:04.886Z,7.63
2023-04-16T07:41:31.605Z,6.35
2023-04-16T07:43:58.441Z,7.03
2023-04-16T07:46:28.358Z,8.00
2023-04-16T07:48:59.849Z,5.53
2023-04-16T07:51:26.574Z,5.10
2023-04-16T07:53:53.192Z,4.68
2023-04-16T07:56:19.724Z,6.07
2023-04-16T07:58:46.269Z,5.95
2023-04-16T08:01:12.857Z,4.50
2023-04-16T08:03:39.515Z,3.33
2023-04-16T08:06:06.797Z,4.00
2023-04-16T08:08:33.351Z,3.85
2023-04-16T08:11:00.382Z,3.08
2023-04-16T08:13:27.002Z,3.45
2023-04-16T08:15:53.651Z,2.92
2023-04-16T08:18:20.384Z,3.28
2023-04-16T08:20:47.033Z,3.00
2023-04-16T08:23:13.559Z,2.88
2023-04-16T08:25:40.302Z,2.33
2023-04-16T08:28:06.852Z,2.15
2023-04-16T08:30:33.644Z,2.05
2023-04-16T08:33:00.492Z,1.95
2023-04-16T08:35:27.518Z,2.28
2023-04-16T08:37:54.335Z,1.50
2023-04-16T08:40:21.283Z,1.25
2023-04-16T08:42:53.875Z,1.73
2023-04-16T08:45:20.441Z,0.95
2023-04-16T08:47:50.057Z,1.52
2023-04-16T08:50:22.355Z,1.83
2023-04-16T08:52:56.844Z,1.10
2023-04-16T08:55:29.847Z,1.52
2023-04-16T08:57:58.778Z,1.55
2023-04-16T09:00:25.547Z,1.25
2023-04-16T09:02:53.193Z,1.20
2023-04-16T09:05:22.782Z,1.17
2023-04-16T09:07:49.428Z,2.08
2023-04-16T09:10:16.621Z,1.23
2023-04-16T09:12:43.751Z,2.05
2023-04-16T09:15:11.897Z,1.20
2023-04-16T09:17:39.341Z,3.58
2023-04-16T09:20:08.975Z,2.67
2023-04-16T09:22:36.788Z,1.83
2023-04-16T09:25:03.787Z,0.77
2023-04-16T09:27:30.943Z,1.08
2023-04-16T09:29:57.738Z,1.45
2023-04-16T09:32:27.388Z,1.48
2023-04-16T09:37:33.714Z,2.85
2023-04-16T09:40:02.247Z,2.33
2023-04-16T09:42:31.922Z,6.32
2023-04-16T09:45:01.428Z,3.97
2023-04-16T09:47:45.973Z,2.03
2023-04-16T09:50:18.627Z,3.05
2023-04-16T09:52:48.881Z,2.63
2023-04-16T09:55:15.494Z,2.53
2023-04-16T09:57:42.047Z,3.85
2023-04-16T10:00:10.235Z,2.90
2023-04-16T10:02:41.909Z,1.27
2023-04-16T10:05:09.198Z,2.05
2023-04-16T10:07:37.246Z,1.95
2023-04-16T10:10:04.797Z,1.98
2023-04-16T10:12:32.919Z,2.60
2023-04-16T10:15:00.103Z,2.30
2023-04-16T10:17:30.087Z,2.25
2023-04-16T10:19:58.394Z,2.03
2023-04-16T10:22:26.218Z,2.33
2023-04-16T10:24:53.425Z,2.10
2023-04-16T10:27:20.773Z,1.77
2023-04-16T10:29:48.923Z,2.08
2023-04-16T10:32:17.894Z,2.33
2023-04-16T10:34:44.715Z,1.85
2023-04-16T10:37:11.257Z,2.03
2023-04-16T10:39:38.238Z,1.67
2023-04-16T10:42:10.151Z,2.47
2023-04-16T10:44:36.714Z,1.77
2023-04-16T10:47:11.157Z,2.38
2023-04-16T10:49:37.789Z,1.67
2023-04-16T10:52:17.160Z,2.08
2023-04-16T10:54:44.036Z,2.15
2023-04-16T10:57:16.115Z,1.48
2023-04-16T10:59:44.105Z,1.60
2023-04-16T11:02:16.098Z,1.83
2023-04-16T11:04:45.605Z,3.53
2023-04-16T11:10:05.200Z,1.80
2023-04-16T11:15:15.415Z,1.23
2023-04-16T11:17:45.434Z,1.98
2023-04-16T11:22:54.973Z,0.63
2023-04-16T11:27:59.286Z,0.47
2023-04-16T11:30:31.042Z,0.63
2023-04-16T11:32:57.698Z,0.80
2023-04-16T11:35:24.444Z,1.52
2023-04-16T11:37:56.718Z,1.00
2023-04-16T11:40:23.973Z,2.17
2023-04-16T11:42:50.697Z,0.82
2023-04-16T11:45:19.389Z,0.90
2023-04-16T11:47:51.888Z,0.77
2023-04-16T11:52:57.462Z,0.55
2023-04-16T11:55:24.732Z,0.50
2023-04-16T11:57:52.138Z,0.73
2023-04-16T12:00:23.101Z,0.65
2023-04-16T12:02:52.682Z,1.15
2023-04-16T12:05:34.647Z,0.82
2023-04-16T12:08:04.095Z,0.85
2023-04-16T12:10:34.997Z,1.13
2023-04-16T12:13:17.769Z,0.55
2023-04-16T12:18:15.029Z,0.43
2023-04-16T12:20:43.375Z,0.68
2023-04-16T12:23:11.512Z,1.88
2023-04-16T12:25:38.088Z,0.73
2023-04-16T12:28:04.863Z,0.93
2023-04-16T12:30:31.525Z,0.63
2023-04-16T12:33:17.151Z,1.02
2023-04-16T12:35:44.997Z,1.83
2023-04-16T12:38:12.185Z,2.03
2023-04-16T12:40:38.839Z,0.85
2023-04-16T12:43:05.580Z,0.93
2023-04-16T12:45:32.143Z,0.77
2023-04-16T12:47:59.264Z,0.82
2023-04-16T12:50:26.082Z,0.85
2023-04-16T12:52:52.636Z,2.05
2023-04-16T12:55:20.120Z,0.52
2023-04-16T12:57:49.171Z,0.73
2023-04-16T13:00:16.377Z,0.90
2023-04-16T13:02:43.125Z,0.65
2023-04-16T13:05:10.176Z,0.88
2023-04-16T13:07:36.713Z,0.80
2023-04-16T13:10:03.466Z,0.90
2023-04-16T13:12:30.050Z,0.70
2023-04-16T13:14:56.615Z,0.55
2023-04-16T13:17:23.179Z,0.55
2023-04-16T13:19:49.932Z,0.82
2023-04-16T13:22:16.546Z,0.75
2023-04-16T13:24:43.065Z,0.70
2023-04-16T13:27:09.834Z,1.08
2023-04-16T13:29:36.758Z,0.63
2023-04-16T13:32:04.014Z,0.95
2023-04-16T13:34:30.819Z,0.90
2023-04-16T13:36:57.376Z,0.95
2023-04-16T13:39:24.034Z,0.60
2023-04-16T13:41:51.416Z,1.42
2023-04-16T13:44:18.118Z,0.75
2023-04-16T13:46:47.684Z,0.95
2023-04-16T13:49:14.867Z,0.70
2023-04-16T13:51:44.558Z,4.63
2023-04-16T13:54:11.114Z,2.50
2023-04-16T13:56:37.828Z,3.00
2023-04-16T13:59:04.467Z,1.83
2023-04-16T14:01:31.144Z,1.80
2023-04-16T14:03:57.751Z,1.73
2023-04-16T14:06:24.363Z,1.42
2023-04-16T14:08:51.012Z,1.40
2023-04-16T14:11:17.578Z,1.33
2023-04-16T14:13:44.124Z,1.15
2023-04-16T14:16:10.935Z,2.20
2023-04-16T14:18:41.922Z,1.33
2023-04-16T14:21:08.982Z,1.75
2023-04-16T14:23:35.668Z,3.15
2023-04-16T14:26:02.229Z,1.52
2023-04-16T14:28:28.845Z,1.42
2023-04-16T14:30:55.432Z,1.35
2023-04-16T14:33:21.976Z,1.67
2023-04-16T14:35:50.371Z,1.15
2023-04-16T14:38:16.998Z,1.10
2023-04-16T14:40:43.564Z,1.33
2023-04-16T14:43:10.138Z,1.27
2023-04-16T14:45:39.068Z,1.20
2023-04-16T14:48:06.357Z,1.23
2023-04-16T14:50:37.925Z,2.40
2023-04-16T14:53:05.992Z,1.25
2023-04-16T14:55:32.880Z,0.98
2023-04-16T14:57:59.874Z,1.15
2023-04-16T15:00:27.543Z,0.98
2023-04-16T15:02:55.651Z,2.22
2023-04-16T15:05:22.327Z,1.15
2023-04-16T15:07:48.974Z,1.02
2023-04-16T15:10:15.569Z,0.80
2023-04-16T15:12:42.154Z,0.90
2023-04-16T15:15:09.573Z,1.13
2023-04-16T15:17:36.231Z,0.80
2023-04-16T15:20:06.619Z,0.68
2023-04-16T15:22:33.275Z,1.10
2023-04-16T15:24:59.983Z,0.73
2023-04-16T15:27:26.902Z,0.70
2023-04-16T15:29:54.054Z,0.85
2023-04-16T15:32:20.878Z,0.98
2023-04-16T15:34:47.627Z,0.75
2023-04-16T15:37:14.217Z,1.02
2023-04-16T15:39:40.825Z,1.48
2023-04-16T15:42:08.120Z,0.70
2023-04-16T15:44:35.040Z,0.80
2023-04-16T15:47:01.636Z,1.00
2023-04-16T15:49:28.239Z,1.23
2023-04-16T15:51:55.949Z,1.27
2023-04-16T15:54:22.669Z,0.88
2023-04-16T15:56:49.332Z,1.25
2023-04-16T15:59:16.136Z,0.60
2023-04-16T16:01:42.790Z,0.88
2023-04-16T16:04:09.652Z,0.73
2023-04-16T16:06:38.153Z,1.05
2023-04-16T16:09:05.373Z,0.85
2023-04-16T16:11:32.637Z,1.02
2023-04-16T16:14:01.481Z,1.02
2023-04-16T16:16:28.872Z,0.85
2023-04-16T16:18:55.787Z,0.85
2023-04-16T16:21:22.740Z,0.77
2023-04-16T16:23:49.391Z,1.17
2023-04-16T16:26:16.085Z,1.42
2023-04-16T16:28:44.719Z,0.82
2023-04-16T16:31:12.528Z,1.17
2023-04-16T16:33:40.460Z,1.15
2023-04-16T16:36:10.631Z,1.10
2023-04-16T16:41:03.791Z,1.13
2023-04-16T16:43:30.364Z,1.40
2023-04-16T16:45:56.935Z,0.95
2023-04-16T16:48:23.529Z,2.55
2023-04-16T16:50:50.296Z,0.98
2023-04-16T16:53:17.117Z,1.25
2023-04-16T16:55:43.697Z,1.38
2023-04-16T16:58:11.117Z,1.85
2023-04-16T17:00:38.146Z,1.45
2023-04-16T17:03:05.030Z,1.33
2023-04-16T17:05:31.772Z,1.17
2023-04-16T17:07:58.724Z,0.93
2023-04-16T17:10:25.410Z,1.77
2023-04-16T17:12:52.177Z,1.02
2023-04-16T17:15:21.785Z,1.05
2023-04-16T17:17:48.868Z,1.08
2023-04-16T17:20:15.747Z,0.93
2023-04-16T17:22:42.653Z,1.52
2023-04-16T17:25:09.931Z,1.05
2023-04-16T17:27:36.699Z,1.52
2023-04-16T17:30:05.434Z,2.30
2023-04-16T17:32:33.023Z,3.10
2023-04-16T17:35:01.187Z,2.20
2023-04-16T17:37:28.647Z,2.28
2023-04-16T17:39:55.244Z,5.47
2023-04-16T17:42:21.785Z,2.33
2023-04-16T17:44:48.384Z,1.35
2023-04-16T17:47:14.985Z,4.70
2023-04-16T17:49:41.514Z,3.97
2023-04-16T17:52:08.105Z,11.68
2023-04-16T17:54:34.619Z,4.28
2023-04-16T17:57:02.040Z,2.38
2023-04-16T17:59:28.960Z,2.08
2023-04-16T18:01:56.676Z,2.17
2023-04-16T18:04:23.657Z,4.18
2023-04-16T18:06:50.512Z,2.10
2023-04-16T18:09:17.328Z,1.63
2023-04-16T18:11:43.851Z,6.47
2023-04-16T18:14:13.270Z,6.25
2023-04-16T18:16:39.954Z,6.30
2023-04-16T18:19:06.573Z,1.67
2023-04-16T18:21:33.933Z,3.17
2023-04-16T18:24:03.443Z,1.20
2023-04-16T18:26:30.170Z,4.63
2023-04-16T18:28:56.939Z,3.22
2023-04-16T18:31:23.645Z,1.95
2023-04-16T18:33:57.315Z,1.70
2023-04-16T18:36:24.523Z,2.88
2023-04-16T18:39:01.127Z,1.65
2023-04-16T18:41:38.158Z,1.08
2023-04-16T18:44:04.852Z,1.35
2023-04-16T18:46:31.509Z,1.70
2023-04-16T18:48:59.118Z,1.00
2023-04-16T18:51:27.370Z,1.63
2023-04-16T18:53:53.962Z,1.85
2023-04-16T18:56:20.849Z,1.58
2023-04-16T18:58:47.852Z,2.17
2023-04-16T19:01:14.492Z,3.55
2023-04-16T19:03:41.198Z,1.73
2023-04-16T19:06:08.091Z,2.10
2023-04-16T19:08:34.653Z,1.30
2023-04-16T19:11:01.198Z,2.47
2023-04-16T19:13:27.953Z,2.25
2023-04-16T19:15:59.772Z,3.58
2023-04-16T19:18:26.700Z,1.50
2023-04-16T19:21:01.535Z,2.15
2023-04-16T19:23:28.518Z,1.73
2023-04-16T19:25:56.730Z,1.70
2023-04-16T19:28:23.917Z,2.17
2023-04-16T19:30:51.533Z,1.92
2023-04-16T19:33:18.979Z,2.38
2023-04-16T19:35:46.395Z,2.25
2023-04-16T19:38:13.136Z,1.63
2023-04-16T19:40:40.376Z,2.13
2023-04-16T19:43:07.017Z,2.30
2023-04-16T19:45:33.600Z,2.15
2023-04-16T19:48:00.297Z,2.47
2023-04-16T19:50:26.917Z,1.52
2023-04-16T19:52:53.450Z,2.60
2023-04-16T19:55:20.140Z,1.88
2023-04-16T19:57:48.237Z,1.50
2023-04-16T20:00:15.270Z,1.48
2023-04-16T20:02:42.074Z,1.27
2023-04-16T20:05:09.304Z,1.23
2023-04-16T20:07:35.949Z,1.83
2023-04-16T20:10:03.118Z,1.67
2023-04-16T20:12:29.756Z,1.40
2023-04-16T20:14:56.326Z,2.03
2023-04-16T20:17:22.898Z,1.45
2023-04-16T20:19:51.243Z,1.55
2023-04-16T20:22:18.802Z,2.17
2023-04-16T20:24:47.775Z,1.90
2023-04-16T20:27:15.301Z,1.85
2023-04-16T20:29:42.048Z,2.15
2023-04-16T20:32:08.595Z,1.90
2023-04-16T20:34:36.684Z,1.80
2023-04-16T20:37:04.535Z,2.75
2023-04-16T20:39:34.260Z,1.70
2023-04-16T20:42:04.151Z,1.95
2023-04-16T20:47:08.420Z,1.52
2023-04-16T20:49:35.367Z,1.90
2023-04-16T20:52:02.752Z,1.98
2023-04-16T20:54:30.176Z,1.65
2023-04-16T20:56:57.752Z,1.73
2023-04-16T20:59:24.960Z,1.75
2023-04-16T21:01:52.903Z,2.55
2023-04-16T21:04:19.612Z,1.40
2023-04-16T21:06:46.756Z,1.15
2023-04-16T21:09:13.460Z,1.38
2023-04-16T21:11:40.438Z,1.80
2023-04-16T21:14:07.045Z,1.25
2023-04-16T21:16:33.673Z,1.40
2023-04-16T21:19:00.268Z,1.27
2023-04-16T21:21:27.536Z,1.48
2023-04-16T21:23:54.124Z,1.17
2023-04-16T21:26:21.011Z,1.10
2023-04-16T21:28:47.576Z,1.23
2023-04-16T21:31:14.164Z,0.98
2023-04-16T21:33:40.822Z,1.38
2023-04-16T21:36:07.627Z,1.40
2023-04-16T21:38:34.199Z,1.75
2023-04-16T21:41:01.928Z,2.03
2023-04-16T21:43:32.603Z,1.70
2023-04-16T21:45:59.783Z,1.40
2023-04-16T21:48:27.072Z,1.55
2023-04-16T21:50:56.140Z,2.53
2023-04-16T21:53:22.686Z,1.33
2023-04-16T21:55:49.247Z,1.58
2023-04-16T21:58:15.863Z,1.33
2023-04-16T22:00:42.535Z,2.13
2023-04-16T22:03:12.445Z,1.63
2023-04-16T22:05:39.275Z,1.40
2023-04-16T22:08:23.591Z,1.23
2023-04-16T22:10:51.496Z,1.27
2023-04-16T22:13:18.230Z,1.13
2023-04-16T22:15:44.795Z,1.20
2023-04-16T22:18:11.497Z,1.10
2023-04-16T22:20:39.299Z,0.80
2023-04-16T22:23:06.938Z,1.30
2023-04-16T22:25:33.681Z,1.38
2023-04-16T22:28:01.603Z,1.33
2023-04-16T22:30:28.343Z,1.00
2023-04-16T22:32:55.265Z,1.20
2023-04-16T22:35:21.995Z,1.38
2023-04-16T22:37:48.610Z,1.27
2023-04-16T22:40:15.964Z,1.83
2023-04-16T22:42:42.724Z,2.10
2023-04-16T22:45:09.697Z,2.22
2023-04-16T22:47:36.436Z,0.98
2023-04-16T22:50:03.309Z,1.73
2023-04-16T22:52:29.967Z,1.17
2023-04-16T22:54:56.518Z,1.52
2023-04-16T22:57:25.575Z,1.30
2023-04-16T22:59:53.177Z,1.55
2023-04-16T23:02:21.297Z,1.55
2023-04-16T23:04:48.085Z,1.48
2023-04-16T23:07:15.590Z,2.17
2023-04-16T23:09:42.700Z,1.15
2023-04-16T23:12:09.384Z,1.33
2023-04-16T23:14:37.035Z,1.80
2023-04-16T23:17:03.811Z,1.90
2023-04-16T23:19:31.279Z,1.92
2023-04-16T23:21:57.904Z,2.40
2023-04-16T23:24:24.517Z,1.88
2023-04-16T23:26:52.475Z,3.33
2023-04-16T23:29:20.751Z,2.17
2023-04-16T23:31:47.725Z,2.42
2023-04-16T23:34:14.695Z,2.20
2023-04-16T23:36:41.393Z,1.65
2023-04-16T23:39:07.957Z,1.95
2023-04-16T23:41:34.800Z,1.90
2023-04-16T23:44:01.425Z,2.42
2023-04-16T23:46:27.996Z,3.25
2023-04-16T23:48:55.426Z,1.77
2023-04-16T23:51:22.324Z,1.95
2023-04-16T23:53:48.930Z,2.38
2023-04-16T23:56:15.970Z,1.55
2023-04-16T23:58:42.529Z,2.13
